Time;durP1;ratioP1;P1;durP2;ratioP2;P2;SDS_P1;SDS_P2;PMS_P1;PMS_P2;Temp;Humidity;BMP_temperature;BMP_pressure;BME280_temperature;BME280_humidity;BME280_pressure;Samples;Min_cycle;Max_cycle;Signal;HPM_P1;HPM_P2
2022/05/30 00:00:28;;;;;;;1.80;0.50;;;11.10;99.90;;;;;;5116365;28;20461;-55
2022/05/30 00:02:55;;;;;;;1.17;0.50;;;11.10;1.00;;;;;;5132639;27;20839;-52
2022/05/30 00:05:24;;;;;;;0.60;0.50;;;11.20;99.90;;;;;;5136773;27;20483;-55
2022/05/30 00:07:51;;;;;;;0.60;0.40;;;11.20;99.90;;;;;;5137566;27;20448;-56
2022/05/30 00:10:20;;;;;;;0.80;0.50;;;11.20;99.90;;;;;;5133448;27;20488;-53
2022/05/30 00:12:47;;;;;;;0.80;0.50;;;11.30;99.90;;;;;;5116550;28;20440;-53
2022/05/30 00:15:20;;;;;;;1.10;0.47;;;11.30;99.90;;;;;;5117880;28;20457;-55
2022/05/30 00:17:47;;;;;;;0.53;0.40;;;11.20;99.90;;;;;;5118146;28;20951;-52
2022/05/30 00:20:15;;;;;;;0.90;0.50;;;11.20;1.00;;;;;;5117606;27;20841;-50
2022/05/30 00:22:42;;;;;;;0.80;0.50;;;11.20;99.90;;;;;;5118247;28;20544;-52
2022/05/30 00:25:09;;;;;;;0.60;0.37;;;11.10;1.00;;;;;;5118380;28;20820;-50
2022/05/30 00:27:36;;;;;;;1.50;0.50;;;10.80;1.00;;;;;;5117990;28;20447;-52
2022/05/30 00:30:04;;;;;;;1.27;0.50;;;10.50;99.90;;;;;;5117505;28;20484;-54
2022/05/30 00:32:33;;;;;;;0.70;0.50;;;10.40;14.40;;;;;;5118003;28;20825;-54
2022/05/30 00:35:00;;;;;;;0.77;0.40;;;10.20;1.00;;;;;;5117834;28;20539;-53
2022/05/30 00:37:27;;;;;;;0.60;0.40;;;10.00;99.90;;;;;;5117107;28;20456;-51
2022/05/30 00:39:54;;;;;;;0.77;0.50;;;9.90;1.00;;;;;;5117924;28;20445;-51
2022/05/30 00:42:24;;;;;;;0.60;0.40;;;9.90;1.00;;;;;;5118031;28;20455;-52
2022/05/30 00:44:51;;;;;;;0.77;0.43;;;9.90;99.90;;;;;;5117031;28;20847;-55
2022/05/30 00:47:20;;;;;;;0.77;0.40;;;9.80;99.90;;;;;;5115334;27;20560;-51
2022/05/30 00:49:49;;;;;;;0.83;0.53;;;9.70;99.90;;;;;;5116118;28;20579;-54
2022/05/30 00:52:19;;;;;;;0.70;0.40;;;9.80;1.00;;;;;;5116561;28;20456;-55
2022/05/30 00:54:51;;;;;;;1.53;0.50;;;10.00;99.90;;;;;;5115775;28;20975;-54
2022/05/30 00:57:21;;;;;;;0.70;0.50;;;10.10;99.90;;;;;;5115039;27;20591;-50
2022/05/30 00:59:52;;;;;;;0.80;0.60;;;10.10;99.90;;;;;;5116600;28;20979;-55
2022/05/30 01:02:19;;;;;;;0.90;0.40;;;10.10;99.90;;;;;;5118097;27;20984;-52
2022/05/30 01:07:33;;;;;;;0.90;0.60;;;10.20;1.00;;;;;;5117200;28;20486;-49
2022/05/30 01:10:02;;;;;;;0.83;0.50;;;10.20;1.00;;;;;;5116991;28;20484;-55
2022/05/30 01:12:40;;;;;;;1.00;0.50;;;10.10;99.90;;;;;;5117081;28;20544;-53
2022/05/30 01:15:11;;;;;;;1.27;0.53;;;10.00;99.90;;;;;;5129370;27;20487;-57
2022/05/30 01:17:48;;;;;;;0.83;0.43;;;10.00;1.00;;;;;;5117470;28;20441;-54
2022/05/30 01:20:33;;;;;;;0.73;0.40;;;9.90;99.90;;;;;;5117565;28;20456;-51
2022/05/30 01:23:27;;;;;;;0.60;0.50;;;10.00;1.00;;;;;;5113516;28;20503;-51
2022/05/30 01:26:16;;;;;;;1.63;0.50;;;10.10;1.00;;;;;;5117141;28;20897;-51
2022/05/30 01:28:52;;;;;;;0.80;0.30;;;10.10;1.00;;;;;;5116767;27;20461;-55
2022/05/30 01:31:19;;;;;;;0.60;0.47;;;10.00;1.00;;;;;;5116830;28;20480;-54
2022/05/30 01:33:46;;;;;;;0.83;0.50;;;9.90;17.40;;;;;;5117126;28;20532;-55
2022/05/30 01:36:13;;;;;;;0.50;0.40;;;9.90;2.40;;;;;;5116944;28;20485;-54
2022/05/30 01:38:40;;;;;;;0.53;0.40;;;9.90;99.90;;;;;;5129570;27;20546;-55
2022/05/30 01:41:08;;;;;;;0.70;0.40;;;9.80;1.00;;;;;;5137842;27;20785;-50
2022/05/30 01:43:35;;;;;;;0.80;0.50;;;9.70;99.90;;;;;;5137589;27;20562;-55
2022/05/30 01:46:07;;;;;;;0.43;0.30;;;9.50;99.90;;;;;;5136572;27;20452;-55
2022/05/30 01:48:34;;;;;;;0.50;0.40;;;9.50;1.00;;;;;;5116667;28;20540;-55
2022/05/30 01:51:01;;;;;;;1.37;0.50;;;9.60;1.00;;;;;;5116568;28;20862;-49
2022/05/30 01:53:28;;;;;;;0.70;0.50;;;9.60;1.00;;;;;;5116690;28;20967;-54
2022/05/30 01:55:55;;;;;;;0.50;0.40;;;9.50;1.00;;;;;;5115347;28;20555;-55
2022/05/30 01:58:23;;;;;;;0.70;0.47;;;9.60;1.00;;;;;;5116731;28;20880;-51
2022/05/30 02:00:49;;;;;;;0.80;0.50;;;9.50;1.00;;;;;;5116863;28;20552;-54
2022/05/30 02:03:18;;;;;;;0.70;0.50;;;9.60;88.20;;;;;;5116036;28;20752;-50
2022/05/30 02:05:45;;;;;;;0.80;0.40;;;9.50;1.00;;;;;;5115504;28;20559;-51
2022/05/30 02:08:16;;;;;;;0.87;0.50;;;9.40;5.10;;;;;;5115910;28;20869;-51
2022/05/30 02:10:43;;;;;;;2.50;0.50;;;9.50;99.90;;;;;;5116050;28;20481;-53
2022/05/30 02:13:09;;;;;;;1.00;0.50;;;9.50;99.90;;;;;;5115849;28;20451;-54
2022/05/30 02:17:00;;;;;;;1.40;0.40;;;9.50;99.90;;;;;;5116136;28;20547;-55
2022/05/30 02:18:24;;;;;;;1.47;0.50;;;9.40;99.90;;;;;;5116626;28;20527;-50
2022/05/30 02:20:51;;;;;;;1.70;0.60;;;9.30;99.90;;;;;;5116461;28;20460;-54
2022/05/30 02:23:18;;;;;;;0.70;0.60;;;9.20;1.00;;;;;;5115824;28;20545;-50
2022/05/30 02:25:45;;;;;;;1.10;0.50;;;9.30;1.00;;;;;;5115848;28;20459;-51
2022/05/30 02:28:12;;;;;;;1.87;0.50;;;9.40;1.00;;;;;;5116251;28;20505;-56
2022/05/30 02:30:39;;;;;;;0.83;0.50;;;9.40;1.00;;;;;;5113864;28;20779;-52
2022/05/30 02:38:37;;;;;;;1.57;0.57;;;9.60;1.00;;;;;;5114613;28;20456;-52
2022/05/30 02:41:04;;;;;;;1.00;0.50;;;9.70;99.90;;;;;;5115622;28;20552;-50
2022/05/30 02:43:31;;;;;;;2.40;0.50;;;9.80;99.90;;;;;;5115916;28;20485;-50
2022/05/30 02:45:58;;;;;;;0.70;0.40;;;9.70;96.80;;;;;;5116503;28;20455;-52
2022/05/30 02:48:25;;;;;;;0.90;0.57;;;9.60;99.90;;;;;;5115089;28;20543;-52
2022/05/30 02:50:54;;;;;;;0.80;0.60;;;9.50;99.90;;;;;;5115786;28;20518;-54
2022/05/30 02:53:20;;;;;;;0.83;0.60;;;9.50;1.00;;;;;;5115034;28;20531;-54
2022/05/30 02:55:47;;;;;;;1.70;0.57;;;9.60;1.00;;;;;;5115744;28;20547;-52
2022/05/30 02:58:14;;;;;;;1.00;0.70;;;9.50;99.90;;;;;;5114975;28;20551;-56
2022/05/30 03:00:41;;;;;;;2.03;0.70;;;9.50;1.00;;;;;;5115871;28;20748;-55
2022/05/30 03:03:08;;;;;;;2.90;0.70;;;9.40;1.00;;;;;;5115805;28;20440;-55
2022/05/30 03:05:35;;;;;;;3.63;0.70;;;9.30;1.00;;;;;;5120576;28;20470;-51
2022/05/30 03:08:07;;;;;;;1.40;0.70;;;9.20;1.00;;;;;;5138347;27;20519;-55
2022/05/30 03:10:33;;;;;;;1.10;0.80;;;9.00;1.00;;;;;;5140233;27;20981;-50
2022/05/30 03:13:00;;;;;;;0.93;0.70;;;9.00;1.00;;;;;;5140180;27;20807;-54
2022/05/30 03:15:27;;;;;;;1.03;0.77;;;9.20;1.00;;;;;;5125634;27;20967;-56
2022/05/30 03:17:54;;;;;;;2.80;0.80;;;9.20;1.00;;;;;;5118265;28;20447;-55
2022/05/30 03:20:21;;;;;;;1.80;0.80;;;9.20;1.00;;;;;;5118180;28;20453;-55
2022/05/30 03:22:49;;;;;;;1.23;0.80;;;9.10;1.00;;;;;;5118052;28;20533;-51
2022/05/30 03:25:18;;;;;;;1.30;0.80;;;9.20;1.00;;;;;;5117761;27;20556;-53
2022/05/30 03:27:45;;;;;;;1.13;0.80;;;9.30;1.00;;;;;;5118609;28;20959;-52
2022/05/30 03:30:13;;;;;;;1.53;0.80;;;9.30;1.00;;;;;;5119427;28;21010;-54
2022/05/30 03:32:41;;;;;;;2.40;0.90;;;9.40;1.00;;;;;;5118720;28;20543;-54
2022/05/30 03:35:09;;;;;;;1.03;0.80;;;9.40;1.00;;;;;;5119101;28;20456;-53
2022/05/30 03:37:37;;;;;;;1.20;0.87;;;9.40;1.00;;;;;;5119405;28;20528;-54
2022/05/30 03:40:05;;;;;;;2.00;0.80;;;9.30;1.00;;;;;;5118800;28;20455;-54
2022/05/30 03:42:34;;;;;;;1.20;0.90;;;9.30;1.00;;;;;;5118298;27;20467;-55
2022/05/30 03:45:01;;;;;;;2.97;0.90;;;9.10;1.00;;;;;;5118430;28;20579;-53
2022/05/30 03:47:28;;;;;;;1.20;0.90;;;8.90;1.00;;;;;;5118685;28;20536;-52
2022/05/30 03:50:00;;;;;;;1.17;0.80;;;8.70;1.00;;;;;;5118149;28;20544;-53
2022/05/30 03:52:27;;;;;;;3.67;0.80;;;8.60;1.00;;;;;;5118397;28;20467;-54
2022/05/30 03:54:54;;;;;;;1.90;0.80;;;8.50;1.00;;;;;;5118438;28;20491;-53
2022/05/30 03:57:21;;;;;;;1.20;0.87;;;8.30;1.00;;;;;;5118163;28;20531;-55
2022/05/30 03:59:50;;;;;;;1.00;0.70;;;8.40;1.00;;;;;;5117582;27;20497;-55
2022/05/30 04:02:17;;;;;;;1.43;0.87;;;8.40;1.00;;;;;;5118999;28;20495;-54
2022/05/30 04:04:44;;;;;;;2.93;0.90;;;8.30;1.00;;;;;;5118661;28;20463;-54
2022/05/30 04:07:10;;;;;;;2.37;0.80;;;8.30;1.00;;;;;;5118104;28;20436;-53
2022/05/30 04:09:37;;;;;;;1.10;0.70;;;8.50;1.00;;;;;;5117940;28;20560;-50
2022/05/30 04:12:05;;;;;;;1.00;0.70;;;8.50;1.00;;;;;;5118533;28;20480;-52
2022/05/30 04:14:32;;;;;;;1.07;0.77;;;8.40;1.00;;;;;;5118492;28;20750;-51
2022/05/30 04:17:01;;;;;;;1.50;0.70;;;8.40;1.00;;;;;;5118336;28;20892;-51
2022/05/30 04:19:28;;;;;;;1.50;0.80;;;8.40;1.00;;;;;;5116820;27;20545;-54
2022/05/30 04:21:54;;;;;;;2.53;0.80;;;8.30;1.00;;;;;;5117733;28;20516;-54
2022/05/30 04:24:21;;;;;;;1.03;0.70;;;8.10;1.00;;;;;;5117629;28;20527;-52
2022/05/30 04:26:48;;;;;;;1.50;0.80;;;8.10;1.00;;;;;;5119702;27;20455;-55
2022/05/30 04:29:15;;;;;;;1.17;0.90;;;8.20;1.00;;;;;;5137599;27;20534;-52
2022/05/30 04:31:42;;;;;;;1.73;0.80;;;8.30;1.00;;;;;;5137869;27;21064;-54
2022/05/30 04:34:10;;;;;;;1.77;0.77;;;8.40;1.00;;;;;;5137892;27;20526;-53
2022/05/30 04:36:37;;;;;;;1.70;0.90;;;8.70;1.00;;;;;;5127325;27;20503;-54
2022/05/30 04:39:04;;;;;;;1.07;0.70;;;9.10;1.00;;;;;;5116563;28;20536;-52
2022/05/30 04:41:31;;;;;;;1.10;0.90;;;9.40;1.00;;;;;;5117415;28;20523;-52
2022/05/30 04:43:59;;;;;;;1.67;1.10;;;9.60;1.00;;;;;;5117348;28;20563;-55
2022/05/30 04:46:26;;;;;;;0.97;0.70;;;9.80;1.00;;;;;;5132535;27;20903;-54
2022/05/30 04:48:54;;;;;;;1.37;0.67;;;9.90;99.90;;;;;;5137091;27;20443;-55
2022/05/30 04:51:22;;;;;;;0.83;0.57;;;9.70;1.00;;;;;;5137785;27;20490;-51
2022/05/30 04:53:49;;;;;;;1.10;1.00;;;9.60;1.00;;;;;;5133995;27;20554;-53
2022/05/30 04:56:17;;;;;;;1.00;0.70;;;9.60;99.90;;;;;;5117289;28;20516;-54
2022/05/30 04:58:44;;;;;;;1.00;0.70;;;9.40;99.90;;;;;;5115736;27;20913;-53
2022/05/30 05:01:12;;;;;;;1.00;0.70;;;9.20;1.00;;;;;;5116699;28;20491;-54
2022/05/30 05:03:40;;;;;;;1.70;0.80;;;9.30;1.00;;;;;;5115455;28;20441;-53
2022/05/30 05:06:10;;;;;;;1.27;0.57;;;9.30;1.00;;;;;;5116488;28;20459;-53
2022/05/30 05:08:49;;;;;;;2.17;0.90;;;9.30;1.00;;;;;;5115966;28;20883;-53
2022/05/30 05:11:21;;;;;;;1.30;0.83;;;9.30;1.00;;;;;;5116235;28;20484;-53
2022/05/30 05:13:49;;;;;;;2.57;0.80;;;9.30;1.00;;;;;;5116545;28;20445;-55
2022/05/30 05:16:17;;;;;;;1.10;0.80;;;9.20;1.00;;;;;;5116359;27;20904;-53
2022/05/30 05:18:43;;;;;;;1.10;0.70;;;9.30;1.00;;;;;;5115944;28;20539;-54
2022/05/30 05:21:18;;;;;;;1.03;0.67;;;9.30;1.00;;;;;;5116528;28;20958;-54
2022/05/30 05:23:47;;;;;;;1.10;0.80;;;9.50;1.00;;;;;;5116376;28;20458;-54
2022/05/30 05:26:14;;;;;;;2.30;0.80;;;9.80;99.90;;;;;;5115994;28;20526;-52
2022/05/30 05:28:44;;;;;;;1.13;0.80;;;9.70;1.00;;;;;;5115470;28;20833;-55
2022/05/30 05:31:15;;;;;;;1.50;0.70;;;9.80;99.90;;;;;;5114842;28;20951;-51
2022/05/30 05:33:43;;;;;;;1.10;0.80;;;9.80;99.90;;;;;;5113529;28;20451;-53
2022/05/30 05:36:10;;;;;;;0.97;0.67;;;9.80;1.00;;;;;;5113297;28;20469;-52
2022/05/30 05:38:37;;;;;;;1.20;0.80;;;9.80;99.90;;;;;;5115426;28;20486;-53
2022/05/30 05:41:09;;;;;;;1.97;0.80;;;9.90;99.90;;;;;;5115370;28;20748;-52
2022/05/30 05:43:36;;;;;;;1.13;0.90;;;9.90;1.00;;;;;;5113209;27;20932;-52
2022/05/30 05:46:03;;;;;;;0.90;0.70;;;9.90;1.00;;;;;;5114198;28;20554;-50
2022/05/30 05:48:29;;;;;;;2.87;1.00;;;9.90;99.90;;;;;;5114379;28;20441;-54
2022/05/30 05:50:56;;;;;;;1.40;0.83;;;10.00;99.90;;;;;;5114757;28;20493;-54
2022/05/30 05:53:23;;;;;;;2.10;0.77;;;10.20;99.90;;;;;;5115879;28;20459;-53
2022/05/30 05:55:50;;;;;;;2.20;1.00;;;10.50;99.90;;;;;;5113487;28;20487;-54
2022/05/30 05:58:18;;;;;;;1.70;0.90;;;10.60;1.00;;;;;;5115094;28;20502;-53
2022/05/30 06:00:45;;;;;;;1.30;0.80;;;10.60;1.00;;;;;;5116927;28;20496;-51
2022/05/30 06:03:12;;;;;;;1.87;0.90;;;10.70;1.00;;;;;;5115127;28;20496;-51
2022/05/30 06:05:40;;;;;;;1.20;0.80;;;10.70;1.00;;;;;;5115831;28;20469;-50
2022/05/30 06:08:10;;;;;;;1.50;0.83;;;10.60;1.00;;;;;;5114671;28;20535;-51
2022/05/30 06:11:04;;;;;;;1.10;0.90;;;10.70;1.00;;;;;;5114451;28;20456;-53
2022/05/30 06:13:27;;;;;;;1.10;0.90;;;10.80;1.00;;;;;;5114753;28;20445;-54
2022/05/30 06:15:54;;;;;;;4.13;0.80;;;11.00;1.00;;;;;;5114247;28;20492;-50
2022/05/30 06:18:21;;;;;;;2.20;0.90;;;11.00;99.90;;;;;;5113060;28;20607;-52
2022/05/30 06:20:48;;;;;;;1.23;1.00;;;10.90;99.90;;;;;;5114098;28;20485;-54
2022/05/30 06:23:15;;;;;;;1.77;1.20;;;11.10;1.00;;;;;;5113939;28;20448;-49
2022/05/30 06:25:42;;;;;;;1.20;0.80;;;11.20;1.00;;;;;;5114402;28;20583;-55
2022/05/30 06:28:09;;;;;;;1.00;0.80;;;11.20;99.90;;;;;;5113105;28;20506;-54
2022/05/30 06:30:38;;;;;;;1.37;1.10;;;11.40;99.90;;;;;;5113824;28;20978;-54
2022/05/30 06:33:05;;;;;;;1.10;1.00;;;11.40;1.00;;;;;;5120746;28;20439;-51
2022/05/30 06:35:32;;;;;;;1.63;1.10;;;11.30;99.90;;;;;;5129238;28;20842;-54
2022/05/30 06:37:59;;;;;;;1.80;0.90;;;11.20;1.00;;;;;;5116428;28;20555;-53
2022/05/30 06:40:26;;;;;;;1.53;1.00;;;11.50;1.00;;;;;;5120153;28;20451;-51
2022/05/30 06:42:53;;;;;;;3.70;0.90;;;11.70;99.90;;;;;;5137396;27;20534;-53
2022/05/30 06:45:19;;;;;;;4.13;1.30;;;11.90;1.00;;;;;;5136680;27;20482;-52
2022/05/30 06:47:48;;;;;;;1.87;1.07;;;12.20;99.90;;;;;;5119080;27;20954;-54
2022/05/30 06:50:14;;;;;;;1.97;1.27;;;12.10;1.00;;;;;;5121539;27;20756;-57
2022/05/30 06:52:41;;;;;;;1.03;0.83;;;11.90;1.00;;;;;;5122629;27;20919;-52
2022/05/30 06:55:09;;;;;;;2.83;1.07;;;11.80;1.00;;;;;;5118658;27;20551;-54
2022/05/30 07:00:22;;;;;;;1.40;0.90;;;11.80;1.00;;;;;;5117320;27;20436;-52
2022/05/30 07:02:51;;;;;;;3.90;1.10;;;12.00;1.00;;;;;;5118568;27;20436;-54
2022/05/30 07:05:19;;;;;;;4.83;1.10;;;12.00;1.00;;;;;;5127044;27;20759;-55
2022/05/30 07:07:46;;;;;;;1.97;0.90;;;12.00;99.90;;;;;;5116878;27;20475;-53
2022/05/30 07:10:14;;;;;;;1.67;0.90;;;11.90;1.00;;;;;;5117055;28;20764;-52
2022/05/30 07:12:41;;;;;;;1.73;0.80;;;12.30;99.90;;;;;;5117770;27;20495;-55
2022/05/30 07:15:08;;;;;;;1.53;0.90;;;12.70;1.00;;;;;;5116546;27;20555;-54
2022/05/30 07:17:36;;;;;;;2.20;1.20;;;13.00;1.00;;;;;;5118104;27;20980;-51
2022/05/30 07:20:05;;;;;;;1.30;1.00;;;13.10;99.90;;;;;;5121825;27;20452;-55
2022/05/30 07:22:32;;;;;;;1.53;0.97;;;12.90;99.90;;;;;;5120586;27;20519;-56
2022/05/30 07:24:58;;;;;;;2.03;1.10;;;13.00;99.90;;;;;;5123894;27;20455;-56
2022/05/30 07:27:26;;;;;;;1.57;0.90;;;13.00;99.90;;;;;;5123217;27;20531;-54
2022/05/30 07:29:53;;;;;;;1.20;0.80;;;12.80;99.90;;;;;;5130034;27;20505;-56
2022/05/30 07:32:19;;;;;;;4.77;3.70;;;12.90;99.90;;;;;;5122463;27;20563;-56
2022/05/30 07:34:46;;;;;;;1.60;0.90;;;13.30;99.90;;;;;;5116526;27;21076;-53
2022/05/30 07:37:14;;;;;;;1.53;0.97;;;13.50;89.70;;;;;;5118450;27;20445;-54
2022/05/30 07:39:41;;;;;;;1.77;0.70;;;13.60;45.40;;;;;;5134751;27;20866;-54
2022/05/30 07:42:12;;;;;;;1.60;0.67;;;13.60;1.00;;;;;;5124591;27;20551;-55
2022/05/30 07:44:39;;;;;;;1.30;0.63;;;13.80;1.00;;;;;;5116938;28;20476;-56
2022/05/30 07:47:07;;;;;;;3.37;0.60;;;13.60;1.00;;;;;;5135344;27;20462;-54
2022/05/30 07:49:34;;;;;;;1.00;0.60;;;13.60;1.00;;;;;;5136533;27;20451;-54
2022/05/30 07:52:01;;;;;;;2.17;0.60;;;13.60;1.00;;;;;;5130915;27;20845;-53
2022/05/30 07:54:30;;;;;;;1.37;0.50;;;13.80;1.00;;;;;;5117057;27;20539;-56
2022/05/30 07:56:56;;;;;;;0.60;0.40;;;14.10;1.00;;;;;;5125388;27;20539;-56
2022/05/30 07:59:23;;;;;;;0.60;0.50;;;14.10;1.00;;;;;;5116142;27;20551;-55
2022/05/30 08:01:50;;;;;;;1.10;0.60;;;14.30;1.00;;;;;;5121950;27;20432;-54
2022/05/30 08:04:17;;;;;;;1.10;0.60;;;14.40;1.00;;;;;;5123857;27;20444;-57
2022/05/30 08:06:44;;;;;;;1.40;0.57;;;14.60;1.00;;;;;;5130973;27;20440;-56
2022/05/30 08:09:11;;;;;;;1.30;0.50;;;14.70;1.00;;;;;;5126810;27;20554;-57
2022/05/30 08:11:39;;;;;;;0.70;0.50;;;14.70;1.00;;;;;;5133272;27;20507;-56
2022/05/30 08:14:07;;;;;;;0.90;0.50;;;14.70;1.00;;;;;;5133834;27;20579;-53
2022/05/30 08:16:37;;;;;;;0.93;0.60;;;14.80;1.00;;;;;;5118953;27;20895;-53
2022/05/30 08:19:04;;;;;;;0.70;0.50;;;14.90;1.00;;;;;;5114214;27;20464;-53
2022/05/30 08:21:34;;;;;;;1.20;0.30;;;15.00;1.00;;;;;;5118779;27;20544;-55
2022/05/30 08:24:04;;;;;;;2.17;0.57;;;14.90;1.00;;;;;;5116265;27;20532;-54
2022/05/30 08:26:34;;;;;;;2.67;0.60;;;15.00;1.00;;;;;;5114749;27;20567;-53
2022/05/30 08:29:02;;;;;;;2.10;0.50;;;15.20;1.00;;;;;;5116196;28;20451;-54
2022/05/30 08:31:29;;;;;;;1.17;0.60;;;15.10;1.00;;;;;;5115975;28;20582;-52
2022/05/30 08:33:56;;;;;;;0.90;0.50;;;15.00;1.00;;;;;;5116763;28;20539;-54
2022/05/30 08:36:23;;;;;;;1.90;0.50;;;15.10;1.00;;;;;;5114941;27;20464;-53
2022/05/30 08:41:46;;;;;;;0.70;0.50;;;15.30;1.00;;;;;;5116374;28;20455;-55
2022/05/30 08:41:48;;;;;;;0.63;0.40;;;15.30;1.00;;;;;;5116933;28;20428;-54
2022/05/30 08:44:17;;;;;;;0.80;0.40;;;15.30;1.00;;;;;;5115134;27;20468;-54
2022/05/30 08:46:56;;;;;;;1.33;0.50;;;15.50;1.00;;;;;;5116164;28;20505;-51
2022/05/30 08:49:28;;;;;;;0.60;0.40;;;15.60;1.00;;;;;;5115492;28;20503;-56
2022/05/30 08:52:26;;;;;;;4.03;0.50;;;15.90;1.00;;;;;;5116027;28;20480;-56
2022/05/30 08:55:02;;;;;;;1.63;0.50;;;16.10;1.00;;;;;;5098767;27;20789;-54
2022/05/30 08:57:39;;;;;;;1.60;0.40;;;16.20;1.00;;;;;;5115533;28;20535;-51
2022/05/30 09:00:14;;;;;;;0.67;0.40;;;16.20;1.00;;;;;;5115139;27;20556;-53
2022/05/30 09:02:47;;;;;;;0.50;0.40;;;16.20;1.00;;;;;;5115021;27;20535;-53
2022/05/30 09:05:19;;;;;;;1.10;0.60;;;16.40;1.00;;;;;;5114472;28;20475;-54
2022/05/30 09:07:52;;;;;;;0.70;0.40;;;16.40;1.00;;;;;;5114706;27;20539;-54
2022/05/30 09:10:25;;;;;;;0.50;0.37;;;16.30;1.00;;;;;;5115805;28;20527;-54
2022/05/30 09:12:56;;;;;;;1.23;0.43;;;16.30;1.00;;;;;;5115076;28;20487;-54
2022/05/30 09:15:35;;;;;;;0.63;0.33;;;16.10;1.00;;;;;;5116006;28;20547;-56
2022/05/30 09:18:06;;;;;;;0.87;0.50;;;16.10;1.00;;;;;;5115961;28;20445;-54
2022/05/30 09:20:34;;;;;;;0.43;0.23;;;16.10;1.00;;;;;;5118161;27;20693;-51
2022/05/30 09:23:02;;;;;;;0.73;0.40;;;16.00;1.00;;;;;;5133838;27;21032;-53
2022/05/30 09:28:32;;;;;;;0.90;0.40;;;16.00;1.00;;;;;;5088301;27;20736;-51
2022/05/30 09:31:14;;;;;;;0.53;0.30;;;16.20;1.00;;;;;;5113716;27;20544;-53
2022/05/30 09:33:44;;;;;;;0.40;0.30;;;16.50;1.00;;;;;;5114073;28;20476;-54
2022/05/30 09:36:19;;;;;;;1.70;0.23;;;16.50;1.00;;;;;;5114646;27;20460;-55
2022/05/30 09:38:48;;;;;;;0.53;0.37;;;16.80;1.00;;;;;;5115185;27;20516;-55
2022/05/30 09:41:21;;;;;;;0.70;0.40;;;17.00;1.00;;;;;;5119183;27;21080;-51
2022/05/30 09:43:52;;;;;;;0.90;0.40;;;17.00;1.00;;;;;;5132487;27;20455;-54
2022/05/30 09:46:38;;;;;;;5.77;1.50;;;17.30;1.00;;;;;;5134140;27;20451;-54
2022/05/30 09:49:10;;;;;;;0.57;0.30;;;17.50;1.00;;;;;;5131498;27;20488;-51
2022/05/30 09:51:43;;;;;;;15.70;6.70;;;17.60;1.00;;;;;;5134533;27;20550;-57
2022/05/30 09:54:12;;;;;;;1.10;0.40;;;17.80;1.00;;;;;;5116976;28;20567;-58
2022/05/30 09:56:42;;;;;;;0.70;0.30;;;17.70;1.00;;;;;;5121719;28;20951;-55
2022/05/30 09:59:29;;;;;;;0.50;0.37;;;17.80;1.00;;;;;;5121335;28;20488;-57
2022/05/30 10:01:57;;;;;;;0.70;0.40;;;18.10;1.00;;;;;;5111997;28;20476;-55
2022/05/30 10:04:35;;;;;;;0.60;0.40;;;18.40;1.00;;;;;;5112533;28;20449;-53
2022/05/30 10:07:15;;;;;;;0.73;0.30;;;18.70;1.00;;;;;;5114110;28;20539;-57
2022/05/30 10:09:54;;;;;;;0.60;0.30;;;18.90;1.00;;;;;;5111296;28;20513;-57
2022/05/30 10:12:33;;;;;;;0.97;0.40;;;19.00;1.00;;;;;;5112543;28;20476;-56
2022/05/30 10:15:01;;;;;;;0.70;0.20;;;19.50;1.00;;;;;;5111137;28;20455;-58
2022/05/30 10:17:35;;;;;;;0.60;0.30;;;20.00;1.00;;;;;;5115238;28;20476;-58
2022/05/30 10:20:08;;;;;;;0.50;0.30;;;20.40;1.00;;;;;;5115903;28;20455;-59
2022/05/30 10:28:44;;;;;;;0.50;0.30;;;21.30;1.00;;;;;;5115884;27;21054;-58
2022/05/30 10:31:23;;;;;;;0.70;0.40;;;21.30;1.00;;;;;;5136178;27;20458;-58
2022/05/30 10:34:28;;;;;;;0.70;0.30;;;21.50;1.00;;;;;;5131136;27;20512;-58
2022/05/30 10:37:07;;;;;;;1.27;0.30;;;21.20;1.00;;;;;;5115392;28;20538;-57
2022/05/30 10:39:55;;;;;;;0.57;0.37;;;20.70;1.00;;;;;;5114699;28;20543;-58
2022/05/30 10:42:27;;;;;;;0.60;0.30;;;21.10;1.00;;;;;;5114342;28;20436;-58
2022/05/30 10:44:58;;;;;;;1.57;0.30;;;22.00;1.00;;;;;;5120838;27;20518;-58
2022/05/30 10:47:32;;;;;;;0.70;0.30;;;22.40;1.00;;;;;;5128500;27;20955;-58
2022/05/30 10:50:04;;;;;;;0.50;0.20;;;22.80;1.00;;;;;;5122818;27;20615;-58
2022/05/30 10:52:38;;;;;;;0.50;0.30;;;22.90;1.00;;;;;;5128610;27;20940;-58
2022/05/30 10:55:11;;;;;;;0.80;0.30;;;22.70;1.00;;;;;;5117676;27;20950;-59
2022/05/30 10:57:42;;;;;;;0.53;0.30;;;22.90;1.00;;;;;;5126683;27;20837;-58
2022/05/30 11:00:12;;;;;;;0.53;0.30;;;23.00;1.00;;;;;;5125865;27;20479;-58
2022/05/30 11:02:53;;;;;;;0.97;0.30;;;22.90;1.00;;;;;;5123405;27;20524;-57
2022/05/30 11:05:26;;;;;;;0.77;0.40;;;22.20;1.00;;;;;;5117461;27;20542;-57
2022/05/30 11:08:01;;;;;;;0.60;0.30;;;21.80;1.00;;;;;;5122193;27;20551;-58
2022/05/30 11:10:35;;;;;;;0.50;0.37;;;21.50;1.00;;;;;;5129835;27;20459;-58
2022/05/30 11:13:09;;;;;;;0.80;0.50;;;21.80;1.00;;;;;;5119010;27;20476;-58
2022/05/30 11:15:41;;;;;;;0.43;0.40;;;21.90;1.00;;;;;;5128743;27;20550;-59
2022/05/30 11:18:14;;;;;;;0.40;0.30;;;22.30;1.00;;;;;;5130131;27;20535;-58
2022/05/30 11:20:48;;;;;;;0.33;0.20;;;22.60;1.00;;;;;;5118535;27;20476;-58
2022/05/30 11:23:15;;;;;;;0.43;0.23;;;23.20;1.00;;;;;;5119487;27;20468;-57
2022/05/30 11:26:16;;;;;;;0.43;0.20;;;23.50;1.00;;;;;;5122775;27;20463;-59
2022/05/30 11:29:05;;;;;;;0.60;0.30;;;23.20;1.00;;;;;;5039134;27;20534;-58
2022/05/30 11:31:44;;;;;;;0.60;0.30;;;23.40;1.00;;;;;;5118153;27;20965;-61
2022/05/30 11:34:29;;;;;;;1.27;0.30;;;22.80;1.00;;;;;;5118335;27;20473;-60
2022/05/30 11:37:13;;;;;;;1.10;0.30;;;22.30;1.00;;;;;;5117869;28;20727;-61
2022/05/30 11:39:56;;;;;;;0.60;0.30;;;22.20;1.00;;;;;;5118490;27;20493;-60
2022/05/30 11:42:39;;;;;;;0.50;0.20;;;21.30;1.00;;;;;;5120792;27;21020;-61
2022/05/30 11:45:18;;;;;;;1.80;0.40;;;21.70;1.00;;;;;;5117945;27;20452;-61
2022/05/30 11:47:52;;;;;;;0.40;0.30;;;22.10;1.00;;;;;;5116014;27;20814;-60
2022/05/30 11:50:31;;;;;;;0.63;0.37;;;22.30;1.00;;;;;;5127518;27;20958;-61
2022/05/30 11:53:40;;;;;;;0.47;0.33;;;22.30;1.00;;;;;;5115780;28;20777;-61
2022/05/30 11:56:15;;;;;;;0.90;0.30;;;22.40;1.00;;;;;;5113240;28;20476;-61
2022/05/30 11:59:02;;;;;;;0.57;0.30;;;22.50;1.00;;;;;;5116092;28;20440;-61
2022/05/30 12:01:32;;;;;;;1.80;0.30;;;23.10;1.00;;;;;;5114422;28;20455;-61
2022/05/30 12:04:36;;;;;;;0.80;0.40;;;23.60;1.00;;;;;;5116719;27;20440;-62
2022/05/30 12:07:34;;;;;;;0.80;0.40;;;23.90;1.00;;;;;;5117727;27;21122;-60
2022/05/30 12:10:23;;;;;;;0.50;0.40;;;23.70;1.00;;;;;;5116674;28;20460;-60
2022/05/30 12:13:08;;;;;;;0.70;0.40;;;21.90;1.00;;;;;;5117343;28;20942;-60
2022/05/30 12:16:02;;;;;;;0.50;0.30;;;21.70;1.00;;;;;;5116112;28;20444;-61
2022/05/30 12:24:39;;;;;;;0.50;0.40;;;20.50;1.00;;;;;;5039820;28;20428;-60
2022/05/30 12:27:10;;;;;;;0.53;0.30;;;19.90;1.00;;;;;;5117158;28;20472;-61
2022/05/30 12:29:51;;;;;;;1.20;0.50;;;20.20;1.00;;;;;;5116510;28;20445;-59
2022/05/30 12:32:36;;;;;;;1.00;0.60;;;20.10;1.00;;;;;;5131646;27;20796;-59
2022/05/30 12:35:23;;;;;;;1.57;0.50;;;20.10;1.00;;;;;;5126895;27;20459;-60
2022/05/30 12:37:52;;;;;;;0.60;0.30;;;19.80;1.00;;;;;;5116498;28;20501;-60
2022/05/30 12:40:36;;;;;;;0.53;0.37;;;20.70;1.00;;;;;;5114753;28;20540;-59
2022/05/30 12:43:14;;;;;;;0.60;0.40;;;21.10;1.00;;;;;;5115889;28;20523;-59
2022/05/30 12:45:44;;;;;;;1.73;0.60;;;21.50;1.00;;;;;;5116328;28;20453;-61
2022/05/30 12:48:25;;;;;;;0.60;0.30;;;22.10;1.00;;;;;;5116144;28;20436;-60
2022/05/30 12:51:02;;;;;;;0.50;0.33;;;21.90;1.00;;;;;;5115409;28;20448;-60
2022/05/30 12:54:02;;;;;;;0.40;0.30;;;22.00;1.00;;;;;;5118510;27;20482;-60
2022/05/30 12:57:04;;;;;;;0.60;0.30;;;22.20;1.00;;;;;;5135679;27;20574;-60
2022/05/30 12:59:35;;;;;;;0.70;0.30;;;22.60;1.00;;;;;;5122331;27;20448;-60
2022/05/30 13:02:04;;;;;;;0.40;0.30;;;22.80;1.00;;;;;;5114676;28;20479;-60
2022/05/30 13:04:36;;;;;;;1.83;0.60;;;22.60;1.00;;;;;;5113661;28;20537;-62
2022/05/30 13:07:17;;;;;;;2.30;0.90;;;22.40;1.00;;;;;;5114669;28;20436;-61
2022/05/30 13:09:45;;;;;;;2.47;1.10;;;23.20;1.00;;;;;;5115362;28;20722;-62
2022/05/30 13:15:24;;;;;;;0.70;0.50;;;22.50;1.00;;;;;;5119627;27;20507;-61
2022/05/30 13:18:01;;;;;;;0.70;0.40;;;22.70;1.00;;;;;;5126488;27;20466;-60
2022/05/30 13:20:33;;;;;;;0.47;0.30;;;22.80;1.00;;;;;;5111434;28;20904;-61
2022/05/30 13:23:02;;;;;;;0.50;0.40;;;22.00;1.00;;;;;;5112564;28;20539;-62
2022/05/30 13:25:32;;;;;;;0.90;0.40;;;22.10;1.00;;;;;;5113121;28;20523;-61
2022/05/30 13:28:06;;;;;;;0.50;0.37;;;21.70;1.00;;;;;;5112337;28;21146;-62
2022/05/30 13:30:37;;;;;;;0.80;0.30;;;22.30;1.00;;;;;;5113505;28;20528;-62
2022/05/30 13:33:15;;;;;;;0.60;0.30;;;22.70;1.00;;;;;;5112066;28;21056;-63
2022/05/30 13:35:42;;;;;;;0.60;0.33;;;22.70;1.00;;;;;;5112720;28;20517;-63
2022/05/30 13:38:13;;;;;;;0.50;0.33;;;23.10;1.00;;;;;;5112228;28;20449;-63
2022/05/30 13:40:41;;;;;;;0.60;0.40;;;23.40;1.00;;;;;;5113605;28;20444;-62
2022/05/30 13:43:10;;;;;;;0.40;0.30;;;23.50;1.00;;;;;;5114213;28;20918;-63
2022/05/30 13:45:41;;;;;;;0.80;0.40;;;23.80;1.00;;;;;;5113168;28;20818;-63
2022/05/30 13:48:11;;;;;;;0.90;0.40;;;24.30;1.00;;;;;;5112765;28;20517;-62